OKBO2: North Canadian River at Britton Rd at OKC, OK

                                SHEF ID:       OKBO2     North Canadian River at Britton
STATION TYPE:

STAGE RIV-FLOW WTR-TEMP DIS-OXY CONDUCT BAT-LOAD
ft cfs F mg/l umho/cm volt
Ccp-Rev Ccp-Rev Ccp-Rev Ccp-Rev Ccp-Rev Ccp-Rev
(America/Chicago)
07/17 00:00 5.92 254 79.93 5.72 195 12.00
07/17 01:00 5.86 237 79.59 5.63 213 11.96
07/17 02:00 5.79 219 79.47 5.66 208 11.94
07/17 03:00 5.70 196 79.09 5.78 205 11.94
07/17 04:00 5.61 175 78.71 5.79 219 11.92
07/17 05:00 5.53 157 78.40 5.74 240 11.91
07/17 06:00 5.47 144 78.08 5.73 253 11.90
07/17 07:00 5.41 132 77.86 5.71 264 11.89
07/17 08:00 5.37 124 77.90 5.80 274 12.37
07/17 09:00 5.33 117 78.03 5.94 287 12.94
07/17 10:00 5.29 109 78.84 6.19 302 13.00
07/17 11:00 5.25 102 79.70 6.41 315 13.26
07/17 12:00 5.23 99 81.27 6.81 329 12.70
07/17 13:00 5.22 97 82.33 7.18 342 12.70
07/17 14:00 5.20 94 84.43 7.74 353 12.74
07/17 15:00 5.20 94 86.11 8.26 363 12.66
07/17 16:00 5.20 94 87.58 8.87 379 12.53
07/17 17:00 5.19 92 87.87 9.24 386 12.50
07/17 18:00 5.15 86 88.12 9.78 397 12.53
07/17 19:00 5.17 89 87.96 10.08 408 12.54
07/17 20:00 5.19 92 86.38 9.09 416 12.39
07/17 21:00 5.18 91 85.75 8.55 425 12.18
07/17 22:00 5.18 91 84.87 7.85 431 12.04
07/17 23:00 5.17 89 84.09 7.11 432 11.98
Data processed at Sat 18Jul2026 04:25 GMT

NOTICE: If you are parsing this page

Please convert to using our Data API. Starting early 2026 we will be migrating to: https://water.usace.army.mil with modern pages rendered in JavaScript. When this migration completes you will no longer be able to scrape this page! CWMSDataAPI (CDA)

Timeseries IDs (TSIDs)

TSIDs used from left to right in the data table
OKC3.Stage.Inst.1Hour.0.Ccp-Rev
OKC3.Flow.Inst.1Hour.0.Ccp-Rev
OKC3.Temp-Water.Inst.1Hour.0.Ccp-Rev
OKC3.Conc-DO.Inst.1Hour.0.Ccp-Rev
OKC3.Cond-Water.Inst.1Hour.0.Ccp-Rev
OKC3.Volt-Battery Load.Inst.1Hour.0.Ccp-Rev

                            

All information presented herein is the property of the government of the United States of America and may be revised or deleted at any time without prior notice. Dissemination of this information without the expressed written consent of the Public Affairs Office, Tulsa District U.S. Army Corps of Engineers is strictly prohibited. These data are gathered electronically and, as presented, have NOT undergone any form of quality control. These data are NOT guaranteed to be valid or correct.